Time;durP1;ratioP1;P1;durP2;ratioP2;P2;SDS_P1;SDS_P2;PMS_P1;PMS_P2;Temp;Humidity;BMP_temperature;BMP_pressure;BME280_temperature;BME280_humidity;BME280_pressure;Samples;Min_cycle;Max_cycle;Signal;HPM_P1;HPM_P2
2023/03/16 00:00:19;;;;;;;2.80;1.77;;;;;;;0.89;100.00;101759.41;6253648;28;20038;-72
2023/03/16 00:03:20;;;;;;;2.25;1.15;;;;;;;0.88;100.00;101755.97;6253445;28;20338;-71
2023/03/16 00:06:23;;;;;;;7.68;1.70;;;;;;;0.83;100.00;101756.81;6253462;28;20049;-72
2023/03/16 00:09:29;;;;;;;1.15;0.98;;;;;;;0.77;100.00;101760.22;6253091;28;20442;-71
2023/03/16 00:12:33;;;;;;;5.80;1.38;;;;;;;0.73;100.00;101761.09;6253569;28;20056;-71
2023/03/16 00:15:34;;;;;;;4.43;1.60;;;;;;;0.74;100.00;101763.69;6253079;28;20049;-72
2023/03/16 00:18:37;;;;;;;1.63;1.23;;;;;;;0.74;100.00;101766.28;6253264;28;20123;-72
2023/03/16 00:21:40;;;;;;;2.75;1.33;;;;;;;0.74;100.00;101768.88;6254149;28;20163;-72
2023/03/16 00:24:43;;;;;;;2.33;1.17;;;;;;;0.76;100.00;101761.09;6259469;28;20045;-72
2023/03/16 00:27:44;;;;;;;6.43;3.00;;;;;;;0.75;100.00;101765.41;6255518;28;20053;-72
2023/03/16 00:30:46;;;;;;;1.70;1.13;;;;;;;0.72;100.00;101761.94;6276632;28;20060;-71
2023/03/16 00:33:47;;;;;;;1.17;1.00;;;;;;;0.73;100.00;101754.22;6275632;28;20436;-72
2023/03/16 00:36:50;;;;;;;2.90;1.50;;;;;;;0.74;100.00;101758.50;6277244;28;20049;-72
2023/03/16 00:39:54;;;;;;;6.10;0.93;;;;;;;0.78;100.00;101756.81;6277453;28;20045;-74
2023/03/16 00:42:56;;;;;;;10.32;1.25;;;;;;;0.77;100.00;101749.88;6277368;28;20127;-72
2023/03/16 00:46:00;;;;;;;2.55;1.05;;;;;;;0.81;100.00;101755.94;6277082;28;20041;-72
2023/03/16 00:49:02;;;;;;;2.58;1.08;;;;;;;0.77;100.00;101752.47;6276796;28;20051;-72
2023/03/16 00:52:07;;;;;;;1.80;0.95;;;;;;;0.75;100.00;101755.06;6277370;28;20047;-72
2023/03/16 00:55:09;;;;;;;7.55;1.50;;;;;;;0.76;100.00;101754.19;6276895;28;20061;-72
2023/03/16 00:58:13;;;;;;;1.77;1.05;;;;;;;0.78;100.00;101758.53;6275049;28;20433;-72
2023/03/16 01:01:19;;;;;;;8.90;1.50;;;;;;;0.75;100.00;101759.38;6253851;28;20069;-72
2023/03/16 01:04:22;;;;;;;1.67;1.20;;;;;;;0.75;100.00;101755.06;6252455;28;20041;-72
2023/03/16 01:07:25;;;;;;;1.45;0.93;;;;;;;0.75;100.00;101751.63;6251482;28;20155;-72
2023/03/16 01:10:26;;;;;;;11.90;1.75;;;;;;;0.70;100.00;101748.16;6252085;28;20045;-72
2023/03/16 01:13:28;;;;;;;2.15;1.08;;;;;;;0.67;100.00;101742.97;6268220;28;20060;-72
2023/03/16 01:16:32;;;;;;;1.75;1.10;;;;;;;0.65;100.00;101753.31;6275938;28;20461;-72
2023/03/16 01:19:34;;;;;;;1.80;0.90;;;;;;;0.60;100.00;101736.06;6276297;28;20061;-72
2023/03/16 01:22:37;;;;;;;2.25;1.05;;;;;;;0.58;100.00;101733.44;6276416;28;20052;-72
2023/03/16 01:25:38;;;;;;;1.90;1.20;;;;;;;0.54;100.00;101726.53;6276291;28;20053;-72
2023/03/16 01:28:42;;;;;;;1.00;0.90;;;;;;;0.56;100.00;101726.56;6274060;28;20056;-72
2023/03/16 01:31:44;;;;;;;2.05;1.00;;;;;;;0.55;100.00;101725.69;6276412;28;20072;-71
2023/03/16 01:34:45;;;;;;;2.20;0.75;;;;;;;0.59;100.00;101724.84;6276046;28;20055;-71
2023/03/16 01:37:49;;;;;;;2.53;1.02;;;;;;;0.60;100.00;101728.28;6275684;28;20353;-72
2023/03/16 01:40:52;;;;;;;3.08;0.90;;;;;;;0.58;100.00;101733.44;6275931;28;20048;-72
2023/03/16 01:43:57;;;;;;;2.00;0.75;;;;;;;0.59;100.00;101731.72;6276160;28;20051;-72
2023/03/16 01:46:58;;;;;;;10.80;1.17;;;;;;;0.61;100.00;101722.25;6275214;28;20063;-72
2023/03/16 01:49:59;;;;;;;6.15;0.98;;;;;;;0.59;100.00;101727.44;6275737;28;20368;-71
2023/03/16 01:53:02;;;;;;;6.18;2.00;;;;;;;0.55;100.00;101727.41;6275719;28;20344;-72
2023/03/16 01:56:08;;;;;;;4.43;0.77;;;;;;;0.51;100.00;101721.38;6275391;28;20045;-72
2023/03/16 01:59:13;;;;;;;6.70;0.75;;;;;;;0.51;100.00;101729.13;6274016;28;20056;-72
2023/03/16 02:02:18;;;;;;;3.15;0.95;;;;;;;0.50;100.00;101722.22;6275521;28;20048;-72
2023/03/16 02:05:25;;;;;;;3.13;0.70;;;;;;;0.47;100.00;101725.66;6275834;28;20045;-71
2023/03/16 02:08:28;;;;;;;2.22;0.57;;;;;;;0.44;100.00;101724.78;6274987;28;20075;-72
2023/03/16 02:11:30;;;;;;;1.65;0.80;;;;;;;0.39;100.00;101710.97;6267532;28;20052;-71
2023/03/16 02:14:31;;;;;;;5.15;0.73;;;;;;;0.40;100.00;101710.09;6275148;28;20053;-72
2023/03/16 02:17:35;;;;;;;2.00;1.10;;;;;;;0.39;100.00;101708.38;6275124;28;20052;-72
2023/03/16 02:20:44;;;;;;;3.15;0.82;;;;;;;0.37;100.00;101708.38;6275083;28;20056;-72
2023/03/16 02:23:49;;;;;;;12.38;1.45;;;;;;;0.32;100.00;101702.34;6274663;28;20049;-71
2023/03/16 02:26:55;;;;;;;13.45;1.40;;;;;;;0.30;100.00;101688.53;6274900;28;20429;-73
2023/03/16 02:30:07;;;;;;;3.08;1.23;;;;;;;0.34;100.00;101690.25;6266067;28;20052;-71
2023/03/16 02:33:09;;;;;;;1.08;0.75;;;;;;;0.32;100.00;101684.25;6274956;28;20053;-72
2023/03/16 02:36:13;;;;;;;3.58;0.85;;;;;;;0.31;100.00;101679.91;6274929;28;20053;-73
2023/03/16 02:39:15;;;;;;;1.63;0.90;;;;;;;0.29;100.00;101676.47;6274475;28;20045;-71
2023/03/16 02:42:20;;;;;;;5.32;1.02;;;;;;;0.25;100.00;101667.81;6275146;28;20037;-71
2023/03/16 02:45:26;;;;;;;7.35;1.35;;;;;;;0.23;100.00;101666.09;6274819;28;20483;-73
2023/03/16 02:48:33;;;;;;;0.73;0.70;;;;;;;0.17;100.00;101664.34;6274741;28;20049;-72
2023/03/16 02:51:34;;;;;;;3.60;1.45;;;;;;;0.14;100.00;101666.06;6274895;28;20052;-71
2023/03/16 02:54:35;;;;;;;3.90;1.23;;;;;;;0.12;100.00;101663.47;6274612;28;20057;-71
2023/03/16 02:57:37;;;;;;;8.82;1.88;;;;;;;0.13;100.00;101661.72;6274663;28;20056;-71
2023/03/16 03:00:41;;;;;;;2.95;1.25;;;;;;;0.12;100.00;101665.19;6271341;28;20049;-71
2023/03/16 03:03:42;;;;;;;1.92;0.80;;;;;;;0.09;100.00;101658.31;6249918;28;20049;-71
2023/03/16 03:06:44;;;;;;;2.00;1.17;;;;;;;0.07;100.00;101656.56;6249670;28;20056;-71
2023/03/16 03:09:45;;;;;;;2.70;1.02;;;;;;;0.03;100.00;101658.25;6249737;28;20373;-71
2023/03/16 03:12:48;;;;;;;1.95;0.73;;;;;;;0.03;100.00;101653.09;6249796;28;20056;-71
2023/03/16 03:15:51;;;;;;;4.07;1.33;;;;;;;0.04;100.00;101651.34;6249526;28;20492;-71
2023/03/16 03:18:52;;;;;;;0.77;0.73;;;;;;;0.04;100.00;101657.38;6249672;28;20068;-71
2023/03/16 03:21:55;;;;;;;1.17;0.80;;;;;;;0.06;100.00;101649.66;6249935;28;20453;-71
2023/03/16 03:24:56;;;;;;;3.40;1.17;;;;;;;0.06;100.00;101655.69;6249396;28;20041;-73
2023/03/16 03:27:59;;;;;;;3.78;1.40;;;;;;;0.06;100.00;101670.34;6260343;28;20044;-71
2023/03/16 03:31:02;;;;;;;2.05;0.75;;;;;;;0.10;100.00;101656.56;6265194;28;20049;-71
2023/03/16 03:34:05;;;;;;;2.33;1.25;;;;;;;0.11;100.00;101668.63;6274461;28;20045;-71
2023/03/16 03:37:06;;;;;;;1.25;0.60;;;;;;;0.14;100.00;101660.91;6273229;28;20053;-73
2023/03/16 03:40:10;;;;;;;1.25;0.90;;;;;;;0.16;100.00;101666.94;6278960;28;20048;-71
2023/03/16 03:43:12;;;;;;;1.58;1.20;;;;;;;0.17;100.00;101669.50;6277475;28;20457;-71
2023/03/16 03:46:14;;;;;;;2.22;0.90;;;;;;;0.17;100.00;101666.06;6276752;28;20049;-71
2023/03/16 03:49:16;;;;;;;1.40;0.80;;;;;;;0.22;100.00;101660.06;6278732;28;20049;-71
2023/03/16 03:52:17;;;;;;;7.55;0.80;;;;;;;0.18;100.00;101660.94;6277916;28;20045;-71
2023/03/16 03:55:18;;;;;;;3.17;0.93;;;;;;;0.22;100.00;101657.47;6278002;28;20323;-72
2023/03/16 03:58:20;;;;;;;1.27;0.85;;;;;;;0.25;100.00;101656.63;6278278;28;20425;-71
2023/03/16 04:01:23;;;;;;;2.50;0.80;;;;;;;0.24;100.00;101652.31;6278441;28;20048;-71
2023/03/16 04:04:24;;;;;;;2.72;1.20;;;;;;;0.26;100.00;101648.00;6276515;28;20601;-71
2023/03/16 04:07:25;;;;;;;7.07;1.35;;;;;;;0.29;100.00;101652.34;6270029;28;20046;-71
2023/03/16 04:10:28;;;;;;;2.63;1.17;;;;;;;0.28;100.00;101653.19;6253457;28;20053;-71
2023/03/16 04:13:30;;;;;;;4.47;1.13;;;;;;;0.29;100.00;101653.19;6270292;28;20429;-71
2023/03/16 04:16:32;;;;;;;0.80;0.80;;;;;;;0.30;100.00;101660.09;6277316;28;20377;-71
2023/03/16 04:19:34;;;;;;;6.22;1.02;;;;;;;0.32;100.00;101658.38;6278025;28;20053;-72
2023/03/16 04:22:35;;;;;;;0.95;0.63;;;;;;;0.34;100.00;101645.47;6269804;28;20049;-71
2023/03/16 04:25:38;;;;;;;2.22;0.88;;;;;;;0.38;100.00;101647.19;6277296;28;20522;-71
2023/03/16 04:28:40;;;;;;;5.35;0.77;;;;;;;0.45;100.00;101654.09;6268005;28;20172;-71
2023/03/16 04:31:42;;;;;;;4.97;0.90;;;;;;;0.47;100.00;101647.22;6262894;28;20390;-71
2023/03/16 04:34:46;;;;;;;2.38;0.75;;;;;;;0.52;100.00;101649.81;6260267;28;20503;-71
2023/03/16 04:37:47;;;;;;;6.35;1.75;;;;;;;0.57;100.00;101648.97;6264719;28;20088;-71
2023/03/16 04:40:49;;;;;;;1.85;1.23;;;;;;;0.63;100.00;101646.38;6266901;28;20037;-71
2023/03/16 04:43:50;;;;;;;3.42;0.98;;;;;;;0.62;100.00;101641.22;6268546;28;20452;-71
2023/03/16 04:46:53;;;;;;;2.22;0.82;;;;;;;0.67;100.00;101647.25;6265458;28;20456;-71
2023/03/16 04:49:54;;;;;;;1.10;0.82;;;;;;;0.68;100.00;101643.78;6264907;28;20041;-71
2023/03/16 04:52:56;;;;;;;12.85;1.45;;;;;;;0.73;100.00;101648.16;6264614;28;20045;-71
2023/03/16 04:55:57;;;;;;;2.47;1.23;;;;;;;0.78;100.00;101640.38;6248928;28;20052;-71
2023/03/16 04:58:59;;;;;;;4.18;1.08;;;;;;;0.82;100.00;101630.88;6258507;28;20447;-71
2023/03/16 05:02:02;;;;;;;3.13;1.20;;;;;;;0.84;100.00;101629.19;6258730;28;20041;-71
2023/03/16 05:05:05;;;;;;;6.90;1.48;;;;;;;0.87;100.00;101637.81;6258128;28;20103;-71
2023/03/16 05:08:06;;;;;;;6.07;1.67;;;;;;;0.92;100.00;101622.28;6267009;28;20433;-71
2023/03/16 05:11:08;;;;;;;4.43;1.40;;;;;;;0.95;100.00;101619.69;6267813;28;20038;-71
2023/03/16 05:14:09;;;;;;;2.22;1.20;;;;;;;1.02;100.00;101622.28;6257990;28;20164;-71
2023/03/16 05:17:13;;;;;;;6.15;1.65;;;;;;;1.06;100.00;101617.97;6260950;28;20072;-71
2023/03/16 05:20:15;;;;;;;7.93;1.33;;;;;;;1.08;100.00;101618.81;6268531;28;20083;-71
2023/03/16 05:23:16;;;;;;;0.90;0.80;;;;;;;1.14;100.00;101621.44;6268732;28;20127;-71
2023/03/16 05:26:18;;;;;;;4.90;0.80;;;;;;;1.20;100.00;101611.06;6264099;28;20610;-72
2023/03/16 05:29:19;;;;;;;0.90;0.63;;;;;;;1.25;100.00;101598.09;6276269;28;20049;-71
2023/03/16 05:32:23;;;;;;;5.53;1.13;;;;;;;1.27;100.00;101601.53;6274392;28;20052;-71
2023/03/16 05:35:24;;;;;;;1.00;0.85;;;;;;;1.30;100.00;101598.97;6275923;28;20056;-71
2023/03/16 05:38:26;;;;;;;2.95;1.40;;;;;;;1.32;100.00;101594.66;6272292;28;20063;-71
2023/03/16 05:41:28;;;;;;;0.98;0.77;;;;;;;1.32;100.00;101598.94;6260570;28;20128;-71
2023/03/16 05:44:29;;;;;;;4.90;0.80;;;;;;;1.39;100.00;101603.25;6265944;28;20052;-71
2023/03/16 05:47:32;;;;;;;2.05;0.80;;;;;;;1.46;100.00;101613.63;6265605;28;20057;-71
2023/03/16 05:50:33;;;;;;;0.82;0.75;;;;;;;1.46;100.00;101611.03;6265857;28;20045;-71
2023/03/16 05:53:35;;;;;;;5.47;1.00;;;;;;;1.51;100.00;101605.84;6273090;28;20056;-71
2023/03/16 05:56:36;;;;;;;3.60;1.38;;;;;;;1.51;100.00;101604.09;6275106;28;20061;-71
2023/03/16 05:59:38;;;;;;;3.13;1.35;;;;;;;1.50;100.00;101604.97;6275695;28;20052;-72
2023/03/16 06:02:41;;;;;;;2.35;0.80;;;;;;;1.50;100.00;101617.94;6271754;28;20445;-71
2023/03/16 06:05:42;;;;;;;1.27;0.80;;;;;;;1.47;100.00;101612.75;6260786;28;20057;-71
2023/03/16 06:08:44;;;;;;;5.63;1.40;;;;;;;1.45;100.00;101604.13;6261491;28;20049;-72
2023/03/16 06:11:45;;;;;;;1.33;0.93;;;;;;;1.45;100.00;101601.53;6257077;28;20346;-71
2023/03/16 06:14:46;;;;;;;3.50;0.98;;;;;;;1.43;100.00;101605.84;6263774;28;20052;-72
2023/03/16 06:17:49;;;;;;;3.92;0.80;;;;;;;1.40;100.00;101613.59;6262218;28;20048;-72
2023/03/16 06:20:50;;;;;;;2.55;1.30;;;;;;;1.36;100.00;101603.25;6272384;28;20345;-71
2023/03/16 06:23:52;;;;;;;3.90;1.40;;;;;;;1.38;100.00;101620.53;6271984;28;20040;-72
2023/03/16 06:26:53;;;;;;;0.70;0.50;;;;;;;1.38;100.00;101620.53;6275017;28;20041;-72
2023/03/16 06:29:55;;;;;;;9.13;1.27;;;;;;;1.45;100.00;101626.56;6265050;28;20041;-72
2023/03/16 06:32:58;;;;;;;1.02;0.82;;;;;;;1.47;100.00;101623.09;6261252;28;20041;-71
2023/03/16 06:36:00;;;;;;;2.45;1.23;;;;;;;1.50;100.00;101617.06;6259763;28;20046;-72
2023/03/16 06:39:01;;;;;;;2.53;0.80;;;;;;;1.51;100.00;101613.59;6265563;28;20353;-72
2023/03/16 06:42:04;;;;;;;4.38;1.08;;;;;;;1.53;100.00;101614.44;6266682;28;20051;-72
2023/03/16 06:45:06;;;;;;;4.65;0.90;;;;;;;1.61;100.00;101617.03;6274375;28;20076;-72
2023/03/16 06:48:10;;;;;;;3.17;1.38;;;;;;;1.69;100.00;101623.94;6260160;28;20433;-72
2023/03/16 06:51:11;;;;;;;2.08;1.23;;;;;;;1.75;100.00;101617.84;6263152;28;20041;-72
2023/03/16 06:54:13;;;;;;;2.00;0.90;;;;;;;1.72;100.00;101623.91;6255587;28;20053;-72
2023/03/16 06:57:14;;;;;;;9.23;1.52;;;;;;;1.84;100.00;101632.53;6259508;28;20438;-72
2023/03/16 07:00:16;;;;;;;1.85;1.05;;;;;;;1.84;100.00;101630.78;6260568;28;20060;-72
2023/03/16 07:03:19;;;;;;;6.18;2.60;;;;;;;1.95;100.00;101634.22;6259950;28;20061;-72
2023/03/16 07:06:20;;;;;;;2.78;1.05;;;;;;;2.02;100.00;101645.41;6259387;28;20045;-72
2023/03/16 07:09:21;;;;;;;3.60;0.90;;;;;;;2.08;100.00;101653.16;6258896;28;20056;-72
2023/03/16 07:12:23;;;;;;;3.38;1.33;;;;;;;2.12;100.00;101654.00;6265148;28;20056;-71
2023/03/16 07:15:25;;;;;;;3.45;1.67;;;;;;;2.21;100.00;101666.94;6272135;28;20045;-72
2023/03/16 07:18:29;;;;;;;2.33;1.33;;;;;;;2.28;100.00;101669.50;6273928;28;20050;-72
2023/03/16 07:21:37;;;;;;;2.65;1.08;;;;;;;2.34;100.00;101671.22;6261855;28;20048;-72
2023/03/16 07:24:39;;;;;;;6.10;1.42;;;;;;;2.37;100.00;101673.81;6256304;28;20360;-72
2023/03/16 07:27:42;;;;;;;1.88;1.30;;;;;;;2.41;100.00;101672.91;6254381;28;20053;-72
2023/03/16 07:30:44;;;;;;;1.83;1.48;;;;;;;2.47;100.00;101670.28;6264006;28;20400;-72
2023/03/16 07:33:47;;;;;;;3.33;1.13;;;;;;;2.55;100.00;101667.66;6260879;28;20346;-72
2023/03/16 07:36:51;;;;;;;2.30;1.30;;;;;;;2.60;100.00;101671.09;6256130;28;20533;-72
2023/03/16 07:39:52;;;;;;;7.25;2.00;;;;;;;2.68;100.00;101663.22;6257612;28;20049;-72
2023/03/16 07:42:54;;;;;;;3.20;1.67;;;;;;;2.75;100.00;101667.53;6257714;28;20041;-72
2023/03/16 07:45:55;;;;;;;2.72;1.25;;;;;;;2.80;100.00;101666.63;6262611;28;20046;-71
2023/03/16 07:48:58;;;;;;;3.55;1.35;;;;;;;2.83;100.00;101668.34;6264308;28;20062;-72
2023/03/16 07:52:00;;;;;;;1.52;1.10;;;;;;;2.85;100.00;101670.94;6259262;28;20128;-72
2023/03/16 07:55:01;;;;;;;1.67;1.13;;;;;;;2.93;100.00;101662.22;6255384;28;20350;-72
2023/03/16 07:58:03;;;;;;;2.25;1.23;;;;;;;3.03;100.00;101670.78;6254468;28;20541;-71
2023/03/16 08:01:05;;;;;;;3.45;1.52;;;;;;;3.08;100.00;101674.22;6256629;28;20129;-71
2023/03/16 08:04:11;;;;;;;4.43;1.10;;;;;;;3.17;100.00;101663.75;6263981;28;20049;-71
2023/03/16 08:07:13;;;;;;;4.82;1.48;;;;;;;3.25;100.00;101659.38;6268617;28;20056;-71
2023/03/16 08:10:15;;;;;;;1.95;1.05;;;;;;;3.36;100.00;101666.19;6254895;28;20045;-72
2023/03/16 08:13:16;;;;;;;1.88;1.15;;;;;;;3.46;100.00;101665.25;6253534;28;20042;-71
2023/03/16 08:16:18;;;;;;;1.98;1.27;;;;;;;3.58;100.00;101661.66;6276288;28;20044;-71
2023/03/16 08:19:20;;;;;;;1.38;1.27;;;;;;;3.67;100.00;101659.84;6260425;28;20381;-71
2023/03/16 08:22:22;;;;;;;1.33;0.95;;;;;;;3.74;100.00;101652.84;6255545;28;20041;-71
2023/03/16 08:25:23;;;;;;;5.10;1.08;;;;;;;3.81;100.00;101651.88;6252241;28;20050;-71
2023/03/16 08:28:25;;;;;;;2.00;0.90;;;;;;;3.87;100.00;101651.84;6255223;28;20453;-71
2023/03/16 08:31:26;;;;;;;2.92;1.33;;;;;;;3.93;100.00;101645.69;6261744;28;20120;-71
2023/03/16 08:34:29;;;;;;;1.92;1.05;;;;;;;3.97;100.00;101653.44;6258554;28;20049;-71
2023/03/16 08:37:31;;;;;;;1.98;1.05;;;;;;;4.02;100.00;101658.59;6255504;28;20132;-71
2023/03/16 08:40:33;;;;;;;2.65;0.82;;;;;;;4.13;100.00;101650.66;6260886;28;20056;-71
2023/03/16 08:43:36;;;;;;;2.10;0.85;;;;;;;4.21;100.00;101651.44;6260695;28;20383;-72
2023/03/16 08:46:38;;;;;;;3.90;0.90;;;;;;;4.33;100.00;101651.28;6252630;28;20136;-71
2023/03/16 08:49:41;;;;;;;2.78;0.88;;;;;;;4.44;100.00;101644.19;6264748;28;20041;-71
2023/03/16 08:52:42;;;;;;;8.57;1.13;;;;;;;4.47;100.00;101657.16;6259302;28;20111;-73
2023/03/16 08:55:45;;;;;;;6.82;0.98;;;;;;;4.49;100.00;101644.97;6254506;28;20053;-71
2023/03/16 08:58:46;;;;;;;6.45;1.15;;;;;;;4.56;100.00;101646.63;6256816;28;20067;-74
2023/03/16 09:01:47;;;;;;;1.65;1.13;;;;;;;4.69;100.00;101636.06;6262623;28;20535;-72
2023/03/16 09:04:51;;;;;;;5.85;1.15;;;;;;;4.73;100.00;101638.59;6269849;28;20437;-72
2023/03/16 09:07:53;;;;;;;1.30;0.70;;;;;;;4.75;99.41;101635.94;6276295;28;20429;-72
2023/03/16 09:10:59;;;;;;;1.27;0.52;;;;;;;4.85;96.91;101640.13;6275877;28;20138;-72
2023/03/16 09:14:00;;;;;;;5.72;0.73;;;;;;;4.98;97.88;101631.22;6277175;28;20049;-72
2023/03/16 09:17:01;;;;;;;1.55;0.82;;;;;;;5.14;100.00;101633.63;6276223;28;20460;-72
2023/03/16 09:20:08;;;;;;;1.08;0.65;;;;;;;5.24;99.50;101622.16;6276791;28;20052;-72
2023/03/16 09:23:09;;;;;;;1.10;0.60;;;;;;;5.28;95.58;101629.03;6276554;28;20068;-72
2023/03/16 09:26:12;;;;;;;1.05;0.68;;;;;;;5.31;95.29;101632.44;6276492;28;20045;-72
2023/03/16 09:29:13;;;;;;;1.70;1.08;;;;;;;5.32;94.09;101628.94;6276191;28;20045;-72
2023/03/16 09:32:15;;;;;;;4.22;0.98;;;;;;;5.35;92.98;101628.88;6276300;28;20045;-72
2023/03/16 09:35:18;;;;;;;3.63;1.20;;;;;;;5.44;93.65;101627.84;6268780;28;20045;-72
2023/03/16 09:38:19;;;;;;;0.70;0.60;;;;;;;5.48;89.89;101626.91;6276358;28;20052;-72
2023/03/16 09:41:36;;;;;;;1.98;0.43;;;;;;;5.55;87.10;101625.94;6276196;28;20448;-72
2023/03/16 09:44:50;;;;;;;1.02;0.70;;;;;;;5.60;88.55;101624.09;6268972;28;20353;-72
2023/03/16 09:47:57;;;;;;;0.65;0.60;;;;;;;5.73;90.00;101629.09;6275981;28;20040;-72
2023/03/16 09:51:02;;;;;;;4.25;0.68;;;;;;;5.76;87.57;101635.06;6263505;28;20045;-72
2023/03/16 09:54:14;;;;;;;0.65;0.65;;;;;;;5.84;89.01;101633.19;6250991;28;20048;-72
2023/03/16 09:57:24;;;;;;;1.27;0.77;;;;;;;5.92;90.12;101630.47;6257544;28;20429;-72
2023/03/16 10:00:30;;;;;;;2.45;1.35;;;;;;;6.00;88.79;101630.31;6275723;28;20068;-72
2023/03/16 10:03:47;;;;;;;1.77;0.80;;;;;;;6.01;91.08;101619.84;6273402;28;20048;-72
2023/03/16 10:06:59;;;;;;;1.90;1.05;;;;;;;6.06;88.05;101617.13;6275319;28;20429;-72
2023/03/16 10:10:14;;;;;;;4.28;0.90;;;;;;;6.12;87.27;101619.63;6275440;28;20361;-72
2023/03/16 10:13:28;;;;;;;2.85;0.90;;;;;;;6.10;89.00;101622.25;6275430;28;20041;-72
2023/03/16 10:16:34;;;;;;;2.10;0.95;;;;;;;6.13;88.76;101608.28;6275114;28;20053;-72
2023/03/16 10:19:41;;;;;;;4.28;0.80;;;;;;;6.19;89.33;101602.94;6267921;28;20049;-74
2023/03/16 10:22:46;;;;;;;6.03;0.85;;;;;;;6.31;88.20;101596.59;6267185;28;20052;-75
2023/03/16 10:25:48;;;;;;;3.95;0.73;;;;;;;6.37;84.96;101603.44;6274902;28;20049;-74
2023/03/16 10:28:51;;;;;;;1.13;0.60;;;;;;;6.45;87.09;101588.44;6275215;28;20045;-74
2023/03/16 10:31:54;;;;;;;2.05;0.88;;;;;;;6.43;87.53;101580.66;6275241;28;20414;-75
2023/03/16 10:35:02;;;;;;;1.13;0.80;;;;;;;6.54;83.12;101577.78;6273947;28;20051;-74
2023/03/16 10:38:08;;;;;;;1.92;1.10;;;;;;;6.65;83.95;101580.16;6274755;28;20130;-72
2023/03/16 10:41:21;;;;;;;1.13;0.55;;;;;;;6.65;84.46;101588.00;6275537;28;20445;-72
2023/03/16 10:44:25;;;;;;;2.80;0.80;;;;;;;6.84;87.29;101592.75;6274320;28;20132;-73
2023/03/16 10:47:30;;;;;;;1.70;0.93;;;;;;;6.89;85.52;101583.94;6275026;28;20059;-72
2023/03/16 10:50:33;;;;;;;2.80;0.70;;;;;;;7.03;84.51;101582.69;6274772;28;20068;-74
2023/03/16 10:53:41;;;;;;;1.33;0.80;;;;;;;7.17;83.48;101573.63;6274923;28;20132;-72
2023/03/16 10:56:42;;;;;;;2.13;1.30;;;;;;;7.27;83.32;101582.97;6258514;28;20461;-72
2023/03/16 10:59:49;;;;;;;4.85;1.17;;;;;;;7.27;78.51;101570.75;6258716;28;20142;-73
2023/03/16 11:02:54;;;;;;;1.45;1.08;;;;;;;7.38;78.33;101573.09;6254643;28;20048;-72
2023/03/16 11:06:01;;;;;;;2.28;0.65;;;;;;;7.49;76.77;101576.25;6252155;28;20060;-73
2023/03/16 11:09:07;;;;;;;3.60;0.80;;;;;;;7.64;80.69;101577.59;6250496;28;20049;-72
2023/03/16 11:12:21;;;;;;;3.05;0.77;;;;;;;7.77;73.70;101573.75;6252667;28;20493;-72
2023/03/16 11:15:22;;;;;;;1.92;0.80;;;;;;;7.83;67.13;101572.72;6253858;28;20044;-72
2023/03/16 11:18:30;;;;;;;2.72;0.60;;;;;;;7.85;67.00;101560.44;6249215;28;20072;-74
2023/03/16 11:21:41;;;;;;;0.93;0.60;;;;;;;7.93;69.49;101560.22;6255812;28;20053;-75
2023/03/16 11:24:50;;;;;;;0.70;0.60;;;;;;;8.01;65.64;101548.63;6252126;28;20056;-72
2023/03/16 11:28:10;;;;;;;2.33;0.60;;;;;;;7.98;67.29;101540.84;6256019;28;20038;-74
2023/03/16 11:31:23;;;;;;;6.03;2.05;;;;;;;7.92;65.12;101542.81;6257938;28;20041;-75
2023/03/16 11:34:28;;;;;;;0.52;0.50;;;;;;;8.08;67.13;101546.66;6258010;28;20179;-74
2023/03/16 11:37:42;;;;;;;1.63;0.60;;;;;;;8.23;65.61;101545.34;6249376;28;20591;-74
2023/03/16 11:40:55;;;;;;;0.90;0.73;;;;;;;8.41;67.31;101531.72;6255621;28;20046;-74
2023/03/16 11:44:04;;;;;;;1.80;0.73;;;;;;;8.60;66.89;101519.75;6257589;28;20046;-74
2023/03/16 11:47:30;;;;;;;1.95;0.52;;;;;;;8.83;67.15;101520.75;6251103;28;20067;-75
2023/03/16 11:50:43;;;;;;;1.05;0.77;;;;;;;9.03;65.47;101510.41;6248300;28;20053;-74
2023/03/16 11:54:00;;;;;;;1.00;0.60;;;;;;;9.09;62.90;101507.59;6250462;28;20042;-74
2023/03/16 11:57:12;;;;;;;0.70;0.50;;;;;;;9.24;64.00;101503.56;6251698;28;20052;-74
2023/03/16 12:00:26;;;;;;;1.30;0.60;;;;;;;9.32;61.56;101498.06;6262109;28;20128;-74
2023/03/16 12:04:01;;;;;;;3.63;0.50;;;;;;;9.46;60.73;101495.78;6254875;28;20050;-75
2023/03/16 12:07:15;;;;;;;1.90;0.50;;;;;;;9.68;57.77;101479.25;6274784;28;20048;-75
2023/03/16 12:10:24;;;;;;;1.48;0.70;;;;;;;9.72;58.83;101481.72;6264208;28;20052;-74
2023/03/16 12:13:32;;;;;;;;;;;;;;;9.78;58.77;101483.25;6254349;28;20069;-75
2023/03/16 12:16:41;;;;;;;0.55;0.40;;;;;;;9.93;55.73;101479.16;6254981;28;19982;-74
2023/03/16 12:19:49;;;;;;;0.60;0.50;;;;;;;9.98;55.47;101480.69;6257740;28;20060;-74
2023/03/16 12:22:55;;;;;;;0.90;0.60;;;;;;;9.89;51.69;101460.88;6253535;28;20049;-74
2023/03/16 12:25:58;;;;;;;0.43;0.32;;;;;;;9.84;52.43;101460.22;6254991;28;20434;-74
2023/03/16 12:29:08;;;;;;;2.30;0.68;;;;;;;9.87;53.55;101462.72;6255940;28;20131;-74
2023/03/16 12:32:13;;;;;;;1.55;0.70;;;;;;;9.90;56.11;101465.25;6266640;28;20428;-74
2023/03/16 12:35:32;;;;;;;1.35;1.00;;;;;;;9.87;54.39;101452.22;6275789;28;20456;-74
2023/03/16 12:38:47;;;;;;;0.45;0.35;;;;;;;9.81;51.47;101441.97;6277606;28;20501;-74
2023/03/16 12:42:00;;;;;;;0.60;0.40;;;;;;;9.81;51.08;101427.97;6269439;28;20061;-75
2023/03/16 12:45:11;;;;;;;2.28;0.60;;;;;;;9.73;48.97;101432.69;6277345;28;20048;-74
2023/03/16 12:48:20;;;;;;;0.65;0.50;;;;;;;9.76;47.91;101425.53;6277493;28;20056;-74
2023/03/16 12:51:32;;;;;;;1.25;0.43;;;;;;;9.75;49.11;101426.44;6269048;28;20048;-74
2023/03/16 12:54:34;;;;;;;0.88;0.50;;;;;;;9.76;50.29;101420.28;6252482;28;20148;-74
2023/03/16 12:57:35;;;;;;;1.95;0.60;;;;;;;9.65;50.72;101431.19;6260581;28;20056;-74
2023/03/16 13:00:40;;;;;;;1.35;0.90;;;;;;;9.67;51.50;101415.38;6260455;28;20057;-74
2023/03/16 13:03:43;;;;;;;1.92;0.85;;;;;;;9.72;51.05;101417.84;6252743;28;20045;-74
2023/03/16 13:06:47;;;;;;;0.63;0.57;;;;;;;9.64;51.13;101412.91;6275975;28;20052;-75
2023/03/16 13:09:53;;;;;;;0.90;0.73;;;;;;;9.65;51.90;101397.09;6269988;28;20049;-74
2023/03/16 13:12:56;;;;;;;1.10;0.60;;;;;;;9.79;49.67;101390.44;6260277;28;20430;-74
2023/03/16 13:16:08;;;;;;;1.58;0.77;;;;;;;9.86;54.16;101403.28;6264218;28;20415;-76
2023/03/16 13:19:27;;;;;;;1.23;0.90;;;;;;;9.73;46.92;101394.19;6276902;28;20464;-75
2023/03/16 13:22:32;;;;;;;0.90;0.60;;;;;;;9.65;49.87;101391.84;6259927;28;20045;-76
2023/03/16 13:25:42;;;;;;;1.15;0.68;;;;;;;9.65;49.63;101391.00;6251911;28;20187;-76
2023/03/16 13:28:50;;;;;;;1.02;0.45;;;;;;;9.58;48.64;101392.13;6251721;28;20081;-76
2023/03/16 13:31:54;;;;;;;0.90;0.70;;;;;;;9.53;49.06;101391.47;6251804;28;20056;-76
2023/03/16 13:34:58;;;;;;;1.35;0.63;;;;;;;9.62;52.83;101385.84;6266092;28;20061;-76
2023/03/16 13:38:04;;;;;;;1.40;0.60;;;;;;;9.55;49.83;101379.16;6259939;28;20056;-76
2023/03/16 13:41:11;;;;;;;0.68;0.38;;;;;;;9.53;49.50;101383.59;6251154;28;20175;-76
2023/03/16 13:44:14;;;;;;;1.95;0.70;;;;;;;9.52;49.00;101374.88;6251537;28;20052;-74
2023/03/16 13:47:19;;;;;;;0.57;0.50;;;;;;;9.38;45.82;101370.16;6251408;28;20049;-74
2023/03/16 13:50:20;;;;;;;1.63;0.68;;;;;;;9.32;45.98;101365.16;6275108;28;20045;-76
2023/03/16 13:53:24;;;;;;;0.50;0.38;;;;;;;9.26;45.49;101364.50;6268540;28;20488;-76
2023/03/16 13:56:28;;;;;;;1.00;0.68;;;;;;;9.30;46.39;101364.34;6267305;28;20041;-76
2023/03/16 13:59:30;;;;;;;1.02;0.60;;;;;;;9.26;48.74;101359.25;6251065;28;20091;-74
2023/03/16 14:02:41;;;;;;;4.25;0.75;;;;;;;9.30;49.17;101351.22;6250714;28;20049;-74
2023/03/16 14:05:42;;;;;;;1.73;0.70;;;;;;;9.22;47.66;101350.69;6250998;28;20055;-76
2023/03/16 14:08:48;;;;;;;1.75;0.70;;;;;;;9.22;46.67;101349.81;6250660;28;20053;-76
2023/03/16 14:11:50;;;;;;;1.77;0.82;;;;;;;9.11;46.26;101350.22;6261609;28;20342;-76
2023/03/16 14:14:55;;;;;;;1.55;0.90;;;;;;;9.11;46.79;101332.72;6275282;28;20068;-75
2023/03/16 14:18:13;;;;;;;1.00;0.40;;;;;;;9.04;47.25;101319.91;6275493;28;20053;-76
2023/03/16 14:21:17;;;;;;;1.63;0.52;;;;;;;9.07;49.22;101314.53;6274215;28;20040;-76